METAR : OOSA 150250Z 36004KT 9999 FEW025 25/20 Q1012 NOSIG